sensor_id;sensor_type;location;lat;lon;timestamp;P1;durP1;ratioP1;P2;durP2;ratioP2
22172;SDS011;11252;50.596;17.648;2022-10-28T00:01:03;53.27;;;33.50;;
22172;SDS011;11252;50.596;17.648;2022-10-28T00:03:36;51.47;;;35.73;;
22172;SDS011;11252;50.596;17.648;2022-10-28T00:06:07;48.53;;;34.30;;
22172;SDS011;11252;50.596;17.648;2022-10-28T00:08:35;42.90;;;30.53;;
22172;SDS011;11252;50.596;17.648;2022-10-28T00:11:05;41.50;;;31.23;;
22172;SDS011;11252;50.596;17.648;2022-10-28T00:13:34;48.27;;;33.47;;
22172;SDS011;11252;50.596;17.648;2022-10-28T00:16:10;43.80;;;31.40;;
22172;SDS011;11252;50.596;17.648;2022-10-28T00:18:38;44.67;;;32.93;;
22172;SDS011;11252;50.596;17.648;2022-10-28T00:21:07;51.90;;;37.73;;
22172;SDS011;11252;50.596;17.648;2022-10-28T00:23:37;47.60;;;35.40;;
22172;SDS011;11252;50.596;17.648;2022-10-28T00:29:49;48.07;;;33.13;;
22172;SDS011;11252;50.596;17.648;2022-10-28T00:32:16;47.00;;;34.40;;
22172;SDS011;11252;50.596;17.648;2022-10-28T00:34:44;51.57;;;38.40;;
22172;SDS011;11252;50.596;17.648;2022-10-28T00:37:11;49.60;;;36.00;;
22172;SDS011;11252;50.596;17.648;2022-10-28T00:39:38;59.33;;;42.87;;
22172;SDS011;11252;50.596;17.648;2022-10-28T00:42:05;61.83;;;40.83;;
22172;SDS011;11252;50.596;17.648;2022-10-28T00:44:39;58.33;;;42.37;;
22172;SDS011;11252;50.596;17.648;2022-10-28T00:53:13;66.67;;;42.80;;
22172;SDS011;11252;50.596;17.648;2022-10-28T00:55:44;77.10;;;47.37;;
22172;SDS011;11252;50.596;17.648;2022-10-28T00:58:13;67.87;;;43.83;;
22172;SDS011;11252;50.596;17.648;2022-10-28T01:00:41;65.57;;;42.60;;
22172;SDS011;11252;50.596;17.648;2022-10-28T01:03:08;58.23;;;41.33;;
22172;SDS011;11252;50.596;17.648;2022-10-28T01:05:37;67.63;;;44.17;;
22172;SDS011;11252;50.596;17.648;2022-10-28T01:08:07;68.73;;;45.10;;
22172;SDS011;11252;50.596;17.648;2022-10-28T01:10:56;68.63;;;44.33;;
22172;SDS011;11252;50.596;17.648;2022-10-28T01:13:34;68.67;;;45.40;;
22172;SDS011;11252;50.596;17.648;2022-10-28T01:16:37;60.00;;;41.27;;
22172;SDS011;11252;50.596;17.648;2022-10-28T01:22:03;55.63;;;40.93;;
22172;SDS011;11252;50.596;17.648;2022-10-28T01:24:53;58.10;;;40.27;;
22172;SDS011;11252;50.596;17.648;2022-10-28T01:30:56;58.53;;;42.47;;
22172;SDS011;11252;50.596;17.648;2022-10-28T01:33:27;57.47;;;41.37;;
22172;SDS011;11252;50.596;17.648;2022-10-28T01:38:56;72.23;;;46.97;;
22172;SDS011;11252;50.596;17.648;2022-10-28T01:41:45;66.60;;;42.53;;
22172;SDS011;11252;50.596;17.648;2022-10-28T01:46:57;59.40;;;41.13;;
22172;SDS011;11252;50.596;17.648;2022-10-28T01:49:46;59.57;;;41.00;;
22172;SDS011;11252;50.596;17.648;2022-10-28T01:52:25;54.73;;;38.37;;
22172;SDS011;11252;50.596;17.648;2022-10-28T01:55:08;55.80;;;39.53;;
22172;SDS011;11252;50.596;17.648;2022-10-28T01:57:41;52.90;;;38.27;;
22172;SDS011;11252;50.596;17.648;2022-10-28T02:00:09;57.30;;;41.33;;
22172;SDS011;11252;50.596;17.648;2022-10-28T02:02:37;55.60;;;39.50;;
22172;SDS011;11252;50.596;17.648;2022-10-28T02:11:09;58.53;;;41.63;;
22172;SDS011;11252;50.596;17.648;2022-10-28T02:19:14;60.30;;;41.47;;
22172;SDS011;11252;50.596;17.648;2022-10-28T02:27:20;53.67;;;37.33;;
22172;SDS011;11252;50.596;17.648;2022-10-28T02:29:59;59.67;;;40.57;;
22172;SDS011;11252;50.596;17.648;2022-10-28T02:32:28;51.27;;;37.20;;
22172;SDS011;11252;50.596;17.648;2022-10-28T02:35:01;54.17;;;37.60;;
22172;SDS011;11252;50.596;17.648;2022-10-28T02:37:31;52.60;;;35.47;;
22172;SDS011;11252;50.596;17.648;2022-10-28T02:40:02;50.33;;;34.77;;
22172;SDS011;11252;50.596;17.648;2022-10-28T02:42:34;46.03;;;33.67;;
22172;SDS011;11252;50.596;17.648;2022-10-28T02:45:05;48.77;;;33.17;;
22172;SDS011;11252;50.596;17.648;2022-10-28T02:47:38;50.87;;;35.17;;
22172;SDS011;11252;50.596;17.648;2022-10-28T02:50:16;50.30;;;35.07;;
22172;SDS011;11252;50.596;17.648;2022-10-28T02:52:47;51.13;;;35.53;;
22172;SDS011;11252;50.596;17.648;2022-10-28T02:55:19;47.00;;;35.03;;
22172;SDS011;11252;50.596;17.648;2022-10-28T02:57:49;50.90;;;34.40;;
22172;SDS011;11252;50.596;17.648;2022-10-28T03:00:18;42.60;;;32.03;;
22172;SDS011;11252;50.596;17.648;2022-10-28T03:02:48;44.07;;;31.83;;
22172;SDS011;11252;50.596;17.648;2022-10-28T03:05:15;45.23;;;32.67;;
22172;SDS011;11252;50.596;17.648;2022-10-28T03:07:43;43.50;;;31.90;;
22172;SDS011;11252;50.596;17.648;2022-10-28T03:10:10;45.70;;;31.30;;
22172;SDS011;11252;50.596;17.648;2022-10-28T03:12:37;43.90;;;30.30;;
22172;SDS011;11252;50.596;17.648;2022-10-28T03:15:05;38.93;;;29.10;;
22172;SDS011;11252;50.596;17.648;2022-10-28T03:17:33;36.43;;;27.03;;
22172;SDS011;11252;50.596;17.648;2022-10-28T03:20:00;35.90;;;27.93;;
22172;SDS011;11252;50.596;17.648;2022-10-28T03:22:27;38.67;;;27.53;;
22172;SDS011;11252;50.596;17.648;2022-10-28T03:24:55;36.60;;;27.07;;
22172;SDS011;11252;50.596;17.648;2022-10-28T03:27:22;35.53;;;27.50;;
22172;SDS011;11252;50.596;17.648;2022-10-28T03:29:49;38.17;;;30.30;;
22172;SDS011;11252;50.596;17.648;2022-10-28T03:32:17;32.57;;;25.93;;
22172;SDS011;11252;50.596;17.648;2022-10-28T03:34:45;36.90;;;26.87;;
22172;SDS011;11252;50.596;17.648;2022-10-28T03:37:13;36.90;;;26.43;;
22172;SDS011;11252;50.596;17.648;2022-10-28T03:39:40;29.53;;;24.07;;
22172;SDS011;11252;50.596;17.648;2022-10-28T03:42:08;39.87;;;28.40;;
22172;SDS011;11252;50.596;17.648;2022-10-28T03:44:35;41.93;;;28.90;;
22172;SDS011;11252;50.596;17.648;2022-10-28T03:47:02;42.73;;;27.27;;
22172;SDS011;11252;50.596;17.648;2022-10-28T03:49:30;42.87;;;27.67;;
22172;SDS011;11252;50.596;17.648;2022-10-28T03:51:58;37.97;;;27.77;;
22172;SDS011;11252;50.596;17.648;2022-10-28T03:54:25;39.50;;;28.53;;
22172;SDS011;11252;50.596;17.648;2022-10-28T03:56:53;39.80;;;26.50;;
22172;SDS011;11252;50.596;17.648;2022-10-28T03:59:20;35.63;;;26.73;;
22172;SDS011;11252;50.596;17.648;2022-10-28T04:01:47;32.43;;;24.70;;
22172;SDS011;11252;50.596;17.648;2022-10-28T04:04:15;32.70;;;24.33;;
22172;SDS011;11252;50.596;17.648;2022-10-28T04:06:42;38.83;;;24.70;;
22172;SDS011;11252;50.596;17.648;2022-10-28T04:09:09;33.47;;;23.83;;
22172;SDS011;11252;50.596;17.648;2022-10-28T04:11:36;38.40;;;27.40;;
22172;SDS011;11252;50.596;17.648;2022-10-28T04:14:04;50.03;;;30.80;;
22172;SDS011;11252;50.596;17.648;2022-10-28T04:16:31;45.20;;;30.37;;
22172;SDS011;11252;50.596;17.648;2022-10-28T04:18:58;43.87;;;28.80;;
22172;SDS011;11252;50.596;17.648;2022-10-28T04:21:26;43.90;;;30.87;;
22172;SDS011;11252;50.596;17.648;2022-10-28T04:23:54;43.23;;;30.77;;
22172;SDS011;11252;50.596;17.648;2022-10-28T04:26:22;45.60;;;29.30;;
22172;SDS011;11252;50.596;17.648;2022-10-28T04:28:49;44.60;;;29.80;;
22172;SDS011;11252;50.596;17.648;2022-10-28T04:31:16;48.27;;;31.47;;
22172;SDS011;11252;50.596;17.648;2022-10-28T04:33:44;45.73;;;31.60;;
22172;SDS011;11252;50.596;17.648;2022-10-28T04:36:11;45.40;;;30.80;;
22172;SDS011;11252;50.596;17.648;2022-10-28T04:38:38;43.70;;;29.07;;
22172;SDS011;11252;50.596;17.648;2022-10-28T04:41:07;49.77;;;32.60;;
22172;SDS011;11252;50.596;17.648;2022-10-28T04:43:38;57.70;;;33.60;;
22172;SDS011;11252;50.596;17.648;2022-10-28T04:46:05;50.17;;;33.17;;
22172;SDS011;11252;50.596;17.648;2022-10-28T04:48:33;53.23;;;34.00;;
22172;SDS011;11252;50.596;17.648;2022-10-28T04:51:01;67.43;;;37.57;;
22172;SDS011;11252;50.596;17.648;2022-10-28T04:53:29;61.33;;;36.67;;
22172;SDS011;11252;50.596;17.648;2022-10-28T04:55:57;51.00;;;35.27;;
22172;SDS011;11252;50.596;17.648;2022-10-28T04:58:25;56.83;;;33.63;;
22172;SDS011;11252;50.596;17.648;2022-10-28T05:00:52;57.90;;;34.00;;
22172;SDS011;11252;50.596;17.648;2022-10-28T05:03:20;54.97;;;33.50;;
22172;SDS011;11252;50.596;17.648;2022-10-28T05:05:47;54.03;;;34.07;;
22172;SDS011;11252;50.596;17.648;2022-10-28T05:08:14;55.30;;;35.20;;
22172;SDS011;11252;50.596;17.648;2022-10-28T05:10:41;59.23;;;37.60;;
22172;SDS011;11252;50.596;17.648;2022-10-28T05:13:09;64.43;;;37.80;;
22172;SDS011;11252;50.596;17.648;2022-10-28T05:15:36;65.17;;;38.77;;
22172;SDS011;11252;50.596;17.648;2022-10-28T05:18:04;67.63;;;40.90;;
22172;SDS011;11252;50.596;17.648;2022-10-28T05:20:31;66.87;;;38.70;;
22172;SDS011;11252;50.596;17.648;2022-10-28T05:22:58;68.73;;;41.63;;
22172;SDS011;11252;50.596;17.648;2022-10-28T05:25:26;62.63;;;38.00;;
22172;SDS011;11252;50.596;17.648;2022-10-28T05:27:56;64.03;;;39.40;;
22172;SDS011;11252;50.596;17.648;2022-10-28T05:30:25;57.50;;;38.80;;
22172;SDS011;11252;50.596;17.648;2022-10-28T05:33:00;62.33;;;39.70;;
22172;SDS011;11252;50.596;17.648;2022-10-28T05:35:29;60.80;;;37.07;;
22172;SDS011;11252;50.596;17.648;2022-10-28T05:37:57;64.97;;;37.93;;
22172;SDS011;11252;50.596;17.648;2022-10-28T05:40:24;55.90;;;38.33;;
22172;SDS011;11252;50.596;17.648;2022-10-28T05:42:52;56.73;;;36.93;;
22172;SDS011;11252;50.596;17.648;2022-10-28T05:45:19;59.50;;;36.87;;
22172;SDS011;11252;50.596;17.648;2022-10-28T05:47:47;53.43;;;35.53;;
22172;SDS011;11252;50.596;17.648;2022-10-28T05:50:15;60.60;;;37.53;;
22172;SDS011;11252;50.596;17.648;2022-10-28T05:52:48;68.70;;;40.13;;
22172;SDS011;11252;50.596;17.648;2022-10-28T05:55:17;63.33;;;38.80;;
22172;SDS011;11252;50.596;17.648;2022-10-28T05:57:48;68.03;;;38.87;;
22172;SDS011;11252;50.596;17.648;2022-10-28T06:00:18;60.40;;;36.73;;
22172;SDS011;11252;50.596;17.648;2022-10-28T06:02:47;57.97;;;37.43;;
22172;SDS011;11252;50.596;17.648;2022-10-28T06:05:14;65.20;;;37.73;;
22172;SDS011;11252;50.596;17.648;2022-10-28T06:07:42;62.60;;;39.93;;
22172;SDS011;11252;50.596;17.648;2022-10-28T06:10:09;63.00;;;39.23;;
22172;SDS011;11252;50.596;17.648;2022-10-28T06:12:37;77.17;;;49.70;;
22172;SDS011;11252;50.596;17.648;2022-10-28T06:15:04;68.93;;;42.23;;
22172;SDS011;11252;50.596;17.648;2022-10-28T06:17:33;56.97;;;37.47;;
22172;SDS011;11252;50.596;17.648;2022-10-28T06:20:00;64.17;;;40.50;;
22172;SDS011;11252;50.596;17.648;2022-10-28T06:22:27;57.33;;;37.57;;
22172;SDS011;11252;50.596;17.648;2022-10-28T06:24:54;57.10;;;38.90;;
22172;SDS011;11252;50.596;17.648;2022-10-28T06:27:22;64.53;;;39.70;;
22172;SDS011;11252;50.596;17.648;2022-10-28T06:29:50;55.90;;;36.87;;
22172;SDS011;11252;50.596;17.648;2022-10-28T06:32:17;55.83;;;37.03;;
22172;SDS011;11252;50.596;17.648;2022-10-28T06:34:45;59.03;;;39.33;;
22172;SDS011;11252;50.596;17.648;2022-10-28T06:37:12;68.37;;;38.33;;
22172;SDS011;11252;50.596;17.648;2022-10-28T06:39:39;57.33;;;36.50;;
22172;SDS011;11252;50.596;17.648;2022-10-28T06:42:08;62.90;;;38.27;;
22172;SDS011;11252;50.596;17.648;2022-10-28T06:44:36;60.30;;;39.40;;
22172;SDS011;11252;50.596;17.648;2022-10-28T06:47:03;60.70;;;35.17;;
22172;SDS011;11252;50.596;17.648;2022-10-28T06:49:30;55.47;;;36.37;;
22172;SDS011;11252;50.596;17.648;2022-10-28T06:51:58;56.80;;;37.13;;
22172;SDS011;11252;50.596;17.648;2022-10-28T06:54:28;55.27;;;39.03;;
22172;SDS011;11252;50.596;17.648;2022-10-28T06:56:56;52.27;;;35.73;;
22172;SDS011;11252;50.596;17.648;2022-10-28T06:59:23;53.93;;;35.63;;
22172;SDS011;11252;50.596;17.648;2022-10-28T07:01:50;50.63;;;33.90;;
22172;SDS011;11252;50.596;17.648;2022-10-28T07:04:18;51.53;;;34.43;;
22172;SDS011;11252;50.596;17.648;2022-10-28T07:06:45;44.80;;;32.40;;
22172;SDS011;11252;50.596;17.648;2022-10-28T07:09:17;43.17;;;32.30;;
22172;SDS011;11252;50.596;17.648;2022-10-28T07:11:46;51.73;;;31.17;;
22172;SDS011;11252;50.596;17.648;2022-10-28T07:14:20;50.50;;;31.53;;
22172;SDS011;11252;50.596;17.648;2022-10-28T07:16:47;46.33;;;30.40;;
22172;SDS011;11252;50.596;17.648;2022-10-28T07:19:15;47.90;;;29.20;;
22172;SDS011;11252;50.596;17.648;2022-10-28T07:21:47;46.70;;;28.33;;
22172;SDS011;11252;50.596;17.648;2022-10-28T07:24:15;45.50;;;28.33;;
22172;SDS011;11252;50.596;17.648;2022-10-28T07:26:42;43.57;;;26.50;;
22172;SDS011;11252;50.596;17.648;2022-10-28T07:29:09;36.60;;;25.47;;
22172;SDS011;11252;50.596;17.648;2022-10-28T07:31:36;37.07;;;25.63;;
22172;SDS011;11252;50.596;17.648;2022-10-28T07:34:04;38.73;;;25.93;;
22172;SDS011;11252;50.596;17.648;2022-10-28T07:36:31;39.27;;;25.63;;
22172;SDS011;11252;50.596;17.648;2022-10-28T07:38:58;36.17;;;24.20;;
22172;SDS011;11252;50.596;17.648;2022-10-28T07:41:26;36.17;;;24.93;;
22172;SDS011;11252;50.596;17.648;2022-10-28T07:43:53;40.90;;;24.83;;
22172;SDS011;11252;50.596;17.648;2022-10-28T07:46:20;31.57;;;23.57;;
22172;SDS011;11252;50.596;17.648;2022-10-28T07:48:47;35.60;;;25.43;;
22172;SDS011;11252;50.596;17.648;2022-10-28T07:51:14;37.93;;;23.73;;
22172;SDS011;11252;50.596;17.648;2022-10-28T07:53:42;34.67;;;21.73;;
22172;SDS011;11252;50.596;17.648;2022-10-28T07:56:10;27.60;;;19.97;;
22172;SDS011;11252;50.596;17.648;2022-10-28T07:58:41;25.10;;;17.63;;
22172;SDS011;11252;50.596;17.648;2022-10-28T08:01:11;26.23;;;18.83;;
22172;SDS011;11252;50.596;17.648;2022-10-28T08:03:39;22.07;;;16.90;;
22172;SDS011;11252;50.596;17.648;2022-10-28T08:06:08;25.33;;;17.77;;
22172;SDS011;11252;50.596;17.648;2022-10-28T08:08:37;26.03;;;17.60;;
22172;SDS011;11252;50.596;17.648;2022-10-28T08:11:12;29.40;;;18.33;;
22172;SDS011;11252;50.596;17.648;2022-10-28T08:13:50;22.53;;;16.43;;
22172;SDS011;11252;50.596;17.648;2022-10-28T08:16:18;17.97;;;15.27;;
22172;SDS011;11252;50.596;17.648;2022-10-28T08:18:46;17.07;;;15.17;;
22172;SDS011;11252;50.596;17.648;2022-10-28T08:21:13;17.07;;;12.97;;
22172;SDS011;11252;50.596;17.648;2022-10-28T08:23:41;14.77;;;11.73;;
22172;SDS011;11252;50.596;17.648;2022-10-28T08:26:13;14.50;;;10.70;;
22172;SDS011;11252;50.596;17.648;2022-10-28T08:28:41;10.97;;;9.60;;
22172;SDS011;11252;50.596;17.648;2022-10-28T08:31:09;12.40;;;9.47;;
22172;SDS011;11252;50.596;17.648;2022-10-28T08:33:39;9.77;;;8.63;;
22172;SDS011;11252;50.596;17.648;2022-10-28T08:36:11;12.83;;;8.27;;
22172;SDS011;11252;50.596;17.648;2022-10-28T08:38:42;11.63;;;9.60;;
22172;SDS011;11252;50.596;17.648;2022-10-28T08:44:08;13.00;;;8.10;;
22172;SDS011;11252;50.596;17.648;2022-10-28T08:49:17;11.43;;;7.13;;
22172;SDS011;11252;50.596;17.648;2022-10-28T08:52:31;8.33;;;6.67;;
22172;SDS011;11252;50.596;17.648;2022-10-28T08:55:00;9.57;;;6.30;;
22172;SDS011;11252;50.596;17.648;2022-10-28T08:57:31;10.20;;;6.50;;
22172;SDS011;11252;50.596;17.648;2022-10-28T09:00:47;7.60;;;5.33;;
22172;SDS011;11252;50.596;17.648;2022-10-28T09:05:24;5.13;;;4.63;;
22172;SDS011;11252;50.596;17.648;2022-10-28T09:07:52;8.37;;;4.43;;
22172;SDS011;11252;50.596;17.648;2022-10-28T09:10:35;6.33;;;4.40;;
22172;SDS011;11252;50.596;17.648;2022-10-28T09:19:42;12.65;;;3.90;;
22172;SDS011;11252;50.596;17.648;2022-10-28T09:22:06;8.05;;;3.03;;
22172;SDS011;11252;50.596;17.648;2022-10-28T09:32:53;5.00;;;2.85;;
22172;SDS011;11252;50.596;17.648;2022-10-28T09:35:43;5.95;;;2.90;;
22172;SDS011;11252;50.596;17.648;2022-10-28T09:41:05;2.55;;;2.25;;
22172;SDS011;11252;50.596;17.648;2022-10-28T09:43:56;3.25;;;2.88;;
22172;SDS011;11252;50.596;17.648;2022-10-28T09:46:30;22.23;;;15.25;;
22172;SDS011;11252;50.596;17.648;2022-10-28T09:49:04;6.28;;;4.82;;
22172;SDS011;11252;50.596;17.648;2022-10-28T09:54:15;3.78;;;2.40;;
22172;SDS011;11252;50.596;17.648;2022-10-28T09:56:43;6.18;;;3.60;;
22172;SDS011;11252;50.596;17.648;2022-10-28T09:59:11;3.15;;;2.45;;
22172;SDS011;11252;50.596;17.648;2022-10-28T10:01:41;2.63;;;1.85;;
22172;SDS011;11252;50.596;17.648;2022-10-28T10:04:22;6.40;;;1.83;;
22172;SDS011;11252;50.596;17.648;2022-10-28T10:06:55;3.95;;;2.45;;
22172;SDS011;11252;50.596;17.648;2022-10-28T10:09:26;4.38;;;2.30;;
22172;SDS011;11252;50.596;17.648;2022-10-28T10:12:06;4.80;;;2.15;;
22172;SDS011;11252;50.596;17.648;2022-10-28T10:14:37;4.32;;;2.15;;
22172;SDS011;11252;50.596;17.648;2022-10-28T10:17:29;7.00;;;2.60;;
22172;SDS011;11252;50.596;17.648;2022-10-28T10:20:06;4.80;;;2.50;;
22172;SDS011;11252;50.596;17.648;2022-10-28T10:22:36;7.78;;;2.75;;
22172;SDS011;11252;50.596;17.648;2022-10-28T10:25:26;8.50;;;2.60;;
22172;SDS011;11252;50.596;17.648;2022-10-28T10:28:02;7.68;;;2.67;;
22172;SDS011;11252;50.596;17.648;2022-10-28T10:30:49;4.43;;;2.80;;
22172;SDS011;11252;50.596;17.648;2022-10-28T10:33:20;5.65;;;2.50;;
22172;SDS011;11252;50.596;17.648;2022-10-28T10:38:36;5.90;;;2.50;;
22172;SDS011;11252;50.596;17.648;2022-10-28T10:41:04;5.35;;;2.28;;
22172;SDS011;11252;50.596;17.648;2022-10-28T10:43:33;8.25;;;3.13;;
22172;SDS011;11252;50.596;17.648;2022-10-28T10:46:11;4.78;;;3.10;;
22172;SDS011;11252;50.596;17.648;2022-10-28T10:48:43;5.55;;;2.78;;
22172;SDS011;11252;50.596;17.648;2022-10-28T10:51:17;7.72;;;4.43;;
22172;SDS011;11252;50.596;17.648;2022-10-28T10:53:50;11.00;;;3.65;;
22172;SDS011;11252;50.596;17.648;2022-10-28T10:56:28;11.93;;;3.95;;
22172;SDS011;11252;50.596;17.648;2022-10-28T10:58:58;6.53;;;2.85;;
22172;SDS011;11252;50.596;17.648;2022-10-28T11:01:32;11.00;;;3.75;;
22172;SDS011;11252;50.596;17.648;2022-10-28T11:04:03;9.73;;;3.65;;
22172;SDS011;11252;50.596;17.648;2022-10-28T11:06:35;5.80;;;3.28;;
22172;SDS011;11252;50.596;17.648;2022-10-28T11:09:11;4.40;;;2.53;;
22172;SDS011;11252;50.596;17.648;2022-10-28T11:11:56;6.60;;;2.40;;
22172;SDS011;11252;50.596;17.648;2022-10-28T11:14:27;3.78;;;2.00;;
22172;SDS011;11252;50.596;17.648;2022-10-28T11:16:57;4.22;;;2.35;;
22172;SDS011;11252;50.596;17.648;2022-10-28T11:19:33;5.88;;;1.90;;
22172;SDS011;11252;50.596;17.648;2022-10-28T11:30:24;6.10;;;2.17;;
22172;SDS011;11252;50.596;17.648;2022-10-28T11:33:12;3.20;;;1.98;;
22172;SDS011;11252;50.596;17.648;2022-10-28T11:36:07;3.28;;;2.20;;
22172;SDS011;11252;50.596;17.648;2022-10-28T11:43:57;2.80;;;1.75;;
22172;SDS011;11252;50.596;17.648;2022-10-28T11:52:31;3.90;;;2.50;;
22172;SDS011;11252;50.596;17.648;2022-10-28T11:58:02;6.75;;;1.95;;
22172;SDS011;11252;50.596;17.648;2022-10-28T12:03:41;2.67;;;1.70;;
22172;SDS011;11252;50.596;17.648;2022-10-28T12:09:05;3.55;;;1.70;;
22172;SDS011;11252;50.596;17.648;2022-10-28T12:16:59;4.20;;;1.90;;
22172;SDS011;11252;50.596;17.648;2022-10-28T12:19:51;5.47;;;1.83;;
22172;SDS011;11252;50.596;17.648;2022-10-28T12:22:26;6.25;;;1.60;;
22172;SDS011;11252;50.596;17.648;2022-10-28T12:25:00;3.88;;;1.50;;
22172;SDS011;11252;50.596;17.648;2022-10-28T12:27:35;2.22;;;1.40;;
22172;SDS011;11252;50.596;17.648;2022-10-28T12:30:25;7.00;;;1.58;;
22172;SDS011;11252;50.596;17.648;2022-10-28T12:32:56;3.83;;;1.27;;
22172;SDS011;11252;50.596;17.648;2022-10-28T12:35:30;4.85;;;1.50;;
22172;SDS011;11252;50.596;17.648;2022-10-28T12:41:21;6.90;;;1.88;;
22172;SDS011;11252;50.596;17.648;2022-10-28T12:44:02;4.18;;;1.33;;
22172;SDS011;11252;50.596;17.648;2022-10-28T12:46:59;11.95;;;1.70;;
22172;SDS011;11252;50.596;17.648;2022-10-28T12:49:38;9.65;;;1.35;;
22172;SDS011;11252;50.596;17.648;2022-10-28T12:52:25;4.07;;;1.60;;
22172;SDS011;11252;50.596;17.648;2022-10-28T12:57:42;18.33;;;1.90;;
22172;SDS011;11252;50.596;17.648;2022-10-28T13:00:27;2.25;;;1.60;;
22172;SDS011;11252;50.596;17.648;2022-10-28T13:03:01;8.63;;;2.10;;
22172;SDS011;11252;50.596;17.648;2022-10-28T13:05:37;4.13;;;1.67;;
22172;SDS011;11252;50.596;17.648;2022-10-28T13:27:43;4.25;;;1.48;;
22172;SDS011;11252;50.596;17.648;2022-10-28T13:30:17;4.68;;;1.58;;
22172;SDS011;11252;50.596;17.648;2022-10-28T13:32:49;7.90;;;1.88;;
22172;SDS011;11252;50.596;17.648;2022-10-28T13:35:36;9.43;;;1.52;;
22172;SDS011;11252;50.596;17.648;2022-10-28T13:38:05;7.35;;;1.73;;
22172;SDS011;11252;50.596;17.648;2022-10-28T13:41:07;3.75;;;1.45;;
22172;SDS011;11252;50.596;17.648;2022-10-28T13:49:24;9.20;;;1.88;;
22172;SDS011;11252;50.596;17.648;2022-10-28T13:59:51;6.45;;;1.60;;
22172;SDS011;11252;50.596;17.648;2022-10-28T14:02:35;2.55;;;1.60;;
22172;SDS011;11252;50.596;17.648;2022-10-28T14:08:04;7.70;;;1.95;;
22172;SDS011;11252;50.596;17.648;2022-10-28T14:10:37;4.72;;;2.10;;
22172;SDS011;11252;50.596;17.648;2022-10-28T14:13:16;6.47;;;2.25;;
22172;SDS011;11252;50.596;17.648;2022-10-28T14:15:46;6.07;;;2.47;;
22172;SDS011;11252;50.596;17.648;2022-10-28T14:21:04;8.20;;;3.08;;
22172;SDS011;11252;50.596;17.648;2022-10-28T14:26:01;5.38;;;3.10;;
22172;SDS011;11252;50.596;17.648;2022-10-28T14:31:46;2.67;;;2.40;;
22172;SDS011;11252;50.596;17.648;2022-10-28T14:36:56;13.93;;;10.32;;
22172;SDS011;11252;50.596;17.648;2022-10-28T14:51:07;9.27;;;3.03;;
22172;SDS011;11252;50.596;17.648;2022-10-28T14:53:39;14.95;;;4.53;;
22172;SDS011;11252;50.596;17.648;2022-10-28T14:56:09;8.95;;;3.30;;
22172;SDS011;11252;50.596;17.648;2022-10-28T14:58:44;8.40;;;3.83;;
22172;SDS011;11252;50.596;17.648;2022-10-28T15:03:47;7.90;;;4.70;;
22172;SDS011;11252;50.596;17.648;2022-10-28T15:09:08;11.93;;;7.90;;
22172;SDS011;11252;50.596;17.648;2022-10-28T15:11:57;22.40;;;12.30;;
22172;SDS011;11252;50.596;17.648;2022-10-28T15:17:09;43.40;;;21.63;;
22172;SDS011;11252;50.596;17.648;2022-10-28T15:19:46;45.23;;;20.13;;
22172;SDS011;11252;50.596;17.648;2022-10-28T15:22:19;16.00;;;7.77;;
22172;SDS011;11252;50.596;17.648;2022-10-28T15:24:57;12.63;;;5.50;;
22172;SDS011;11252;50.596;17.648;2022-10-28T15:27:34;15.17;;;8.00;;
22172;SDS011;11252;50.596;17.648;2022-10-28T15:32:54;12.30;;;7.50;;
22172;SDS011;11252;50.596;17.648;2022-10-28T15:36:05;25.23;;;8.33;;
22172;SDS011;11252;50.596;17.648;2022-10-28T15:38:35;83.43;;;37.47;;
22172;SDS011;11252;50.596;17.648;2022-10-28T15:44:04;118.63;;;61.90;;
22172;SDS011;11252;50.596;17.648;2022-10-28T15:46:31;99.40;;;49.07;;
22172;SDS011;11252;50.596;17.648;2022-10-28T15:49:00;47.30;;;23.27;;
22172;SDS011;11252;50.596;17.648;2022-10-28T15:51:28;31.70;;;14.70;;
22172;SDS011;11252;50.596;17.648;2022-10-28T15:54:09;31.10;;;13.67;;
22172;SDS011;11252;50.596;17.648;2022-10-28T15:56:52;48.13;;;20.57;;
22172;SDS011;11252;50.596;17.648;2022-10-28T15:59:22;33.83;;;14.10;;
22172;SDS011;11252;50.596;17.648;2022-10-28T16:01:51;38.27;;;13.63;;
22172;SDS011;11252;50.596;17.648;2022-10-28T16:06:53;29.70;;;14.00;;
22172;SDS011;11252;50.596;17.648;2022-10-28T16:12:15;28.93;;;18.50;;
22172;SDS011;11252;50.596;17.648;2022-10-28T16:14:46;19.43;;;11.50;;
22172;SDS011;11252;50.596;17.648;2022-10-28T16:17:20;18.47;;;9.67;;
22172;SDS011;11252;50.596;17.648;2022-10-28T16:19:57;26.00;;;13.53;;
22172;SDS011;11252;50.596;17.648;2022-10-28T16:22:28;32.90;;;16.23;;
22172;SDS011;11252;50.596;17.648;2022-10-28T16:24:56;30.43;;;17.10;;
22172;SDS011;11252;50.596;17.648;2022-10-28T16:27:28;21.63;;;11.87;;
22172;SDS011;11252;50.596;17.648;2022-10-28T16:29:57;20.97;;;11.97;;
22172;SDS011;11252;50.596;17.648;2022-10-28T16:32:27;24.40;;;18.20;;
22172;SDS011;11252;50.596;17.648;2022-10-28T16:35:00;41.57;;;26.03;;
22172;SDS011;11252;50.596;17.648;2022-10-28T16:37:30;42.77;;;27.00;;
22172;SDS011;11252;50.596;17.648;2022-10-28T16:40:00;50.10;;;33.97;;
22172;SDS011;11252;50.596;17.648;2022-10-28T16:42:28;38.63;;;28.97;;
22172;SDS011;11252;50.596;17.648;2022-10-28T16:44:56;36.90;;;24.93;;
22172;SDS011;11252;50.596;17.648;2022-10-28T16:47:24;27.00;;;16.40;;
22172;SDS011;11252;50.596;17.648;2022-10-28T16:49:54;25.10;;;15.33;;
22172;SDS011;11252;50.596;17.648;2022-10-28T16:52:24;24.70;;;16.47;;
22172;SDS011;11252;50.596;17.648;2022-10-28T16:54:54;22.73;;;14.70;;
22172;SDS011;11252;50.596;17.648;2022-10-28T16:57:22;17.30;;;12.80;;
22172;SDS011;11252;50.596;17.648;2022-10-28T16:59:52;29.27;;;18.63;;
22172;SDS011;11252;50.596;17.648;2022-10-28T17:04:57;25.17;;;19.03;;
22172;SDS011;11252;50.596;17.648;2022-10-28T17:07:25;24.37;;;18.20;;
22172;SDS011;11252;50.596;17.648;2022-10-28T17:09:53;28.30;;;18.43;;
22172;SDS011;11252;50.596;17.648;2022-10-28T17:12:24;39.40;;;22.87;;
22172;SDS011;11252;50.596;17.648;2022-10-28T17:14:53;40.17;;;25.40;;
22172;SDS011;11252;50.596;17.648;2022-10-28T17:17:20;41.33;;;25.87;;
22172;SDS011;11252;50.596;17.648;2022-10-28T17:19:48;70.57;;;40.63;;
22172;SDS011;11252;50.596;17.648;2022-10-28T17:22:16;36.47;;;22.90;;
22172;SDS011;11252;50.596;17.648;2022-10-28T17:24:44;38.17;;;24.13;;
22172;SDS011;11252;50.596;17.648;2022-10-28T17:27:12;31.43;;;20.63;;
22172;SDS011;11252;50.596;17.648;2022-10-28T17:29:39;37.00;;;22.47;;
22172;SDS011;11252;50.596;17.648;2022-10-28T17:32:07;33.33;;;23.20;;
22172;SDS011;11252;50.596;17.648;2022-10-28T17:34:35;30.73;;;22.33;;
22172;SDS011;11252;50.596;17.648;2022-10-28T17:37:03;30.83;;;19.37;;
22172;SDS011;11252;50.596;17.648;2022-10-28T17:39:30;36.17;;;18.43;;
22172;SDS011;11252;50.596;17.648;2022-10-28T17:41:58;22.57;;;15.67;;
22172;SDS011;11252;50.596;17.648;2022-10-28T17:44:26;25.37;;;17.70;;
22172;SDS011;11252;50.596;17.648;2022-10-28T17:46:55;24.33;;;18.87;;
22172;SDS011;11252;50.596;17.648;2022-10-28T17:49:22;20.93;;;18.13;;
22172;SDS011;11252;50.596;17.648;2022-10-28T17:51:50;26.83;;;19.90;;